Weather observations for the past three days for
Pinehurst/Southern Pines, Moore County Airport
| Date | Time (edt) | Wind (kph) | Vis. (km) | Weather | Sky Cond. | Temperature (ºC) | Relative Humidity | Wind Chill (°C) | Heat Index (°C) | Pressure | Precipitation (cm) | ||||||
|---|---|---|---|---|---|---|---|---|---|---|---|---|---|---|---|---|---|
| Air | Dwpt | 6 hour | altimeter (cm) | sea level (mb) | 1 hr | 3 hr | 6 hr | ||||||||||
| Max. | Min. | ||||||||||||||||
| 10 | 15:56 | W 7 | 16.09 | Partly Cloudy | SCT075 | 27.8 | 10.6 | 34% | 27 | 76.12 | 1014.9 | ||||||
| 10 | 14:56 | NW 15 | 16.09 | A Few Clouds | FEW070 | 27.2 | 10.6 | 35% | 27 | 76.15 | 1015.5 | ||||||
| 10 | 13:56 | Vrbl 9 | 16.09 | A Few Clouds | FEW060 | 28.3 | 11.1 | 28.3 | 18.3 | 34% | 28 | 76.2 | 1016.0 | ||||
| 10 | 12:56 | Vrbl 6 | 16.09 | A Few Clouds | FEW055 | 26.1 | 11.7 | 41% | 26 | 76.23 | 1016.3 | ||||||
| 10 | 11:56 | Calm | 14.48 | Fair | CLR | 25.6 | 11.7 | 42% | 26 | 76.23 | 1016.5 | ||||||
| 10 | 10:56 | Vrbl 6 | 16.09 | Fair | CLR | 24.4 | 14.4 | 54% | 26 | 76.25 | 1016.7 | ||||||
| 10 | 09:56 | N 9 | 16.09 | Fair | CLR | 23.3 | 16.7 | 67% | 76.23 | 1016.5 | |||||||
| 10 | 08:56 | Calm | 16.09 | Fair | CLR | 21.1 | 17.2 | 79% | 76.23 | 1016.2 | |||||||
| 10 | 07:56 | Vrbl 6 | 16.09 | Fair | CLR | 18.3 | 16.7 | 18.3 | 16.1 | 90% | 76.17 | 1015.7 | |||||
| 10 | 06:56 | W 7 | 16.09 | Fair | CLR | 16.7 | 16.1 | 96% | 76.12 | 1014.9 | |||||||
| 10 | 05:56 | SW 6 | 16.09 | Fair | CLR | 16.1 | 16.1 | 100% | 76.05 | 1014.1 | |||||||
| 10 | 04:56 | SW 6 | 16.09 | Fair | CLR | 17.2 | 16.7 | 97% | 76.02 | 1013.6 | |||||||
| 10 | 03:56 | SW 6 | 16.09 | Fair | CLR | 17.2 | 16.7 | 97% | 75.97 | 1012.9 | |||||||
| 10 | 02:56 | SW 6 | 16.09 | Fair | CLR | 17.8 | 16.7 | 93% | 75.95 | 1012.8 | |||||||
| 10 | 01:56 | Calm | 16.09 | Fair | CLR | 17.2 | 16.1 | 21.7 | 16.7 | 93% | 75.97 | 1013.0 | |||||
| 10 | 00:56 | W 6 | 16.09 | Fair | CLR | 17.2 | 16.1 | 93% | 76 | 1013.2 | |||||||
| 09 | 23:56 | SW 7 | 16.09 | Fair | CLR | 18.3 | 16.1 | 87% | 76 | 1013.4 | |||||||
| 09 | 22:56 | SW 9 | 16.09 | Fair | CLR | 18.3 | 16.1 | 87% | 76 | 1013.3 | |||||||
| 09 | 20:56 | SW 6 | 16.09 | Fair | CLR | 18.9 | 16.7 | 87% | 75.9 | 1012.2 | |||||||
| 09 | 19:56 | W 7 | 16.09 | Fair | CLR | 21.7 | 16.1 | 24.4 | 21.1 | 71% | 75.87 | 1011.7 | |||||
| 09 | 18:56 | SW 15 | 16.09 | Fair | CLR | 22.8 | 16.7 | 69% | 75.82 | 1011.0 | |||||||
| 09 | 17:56 | SW 15 | 16.09 | Mostly Cloudy | BKN034 BKN046 | 23.3 | 16.1 | 64% | 75.82 | 1011.0 | |||||||
| 09 | 16:56 | SW 19 | 16.09 | Overcast | SCT032 BKN045 OVC055 | 24.4 | 16.7 | 62% | 25 | 75.79 | 1010.8 | ||||||
| 09 | 15:56 | SW 15 | 16.09 | Overcast | BKN028 OVC039 | 22.8 | 16.7 | 69% | 75.82 | 1011.0 | |||||||
| 09 | 14:56 | S 15 | 16.09 | Overcast | SCT026 BKN035 OVC048 | 22.2 | 16.7 | 71% | 75.87 | 1011.7 | |||||||
| 09 | 13:56 | SW 15 | 16.09 | Overcast | BKN029 OVC036 | 21.7 | 16.1 | 22.8 | 15 | 71% | 75.9 | 1012.1 | |||||
| 09 | 12:56 | SW 20 | 16.09 | Overcast | SCT025 BKN029 OVC038 | 21.7 | 15.6 | 68% | 75.95 | 1012.8 | |||||||
| 09 | 11:56 | SW 20 | 16.09 | Mostly Cloudy | FEW020 BKN060 | 20.6 | 16.1 | 76% | 75.97 | 1013.1 | |||||||
| 09 | 10:56 | Vrbl 9 | 16.09 | Overcast | BKN070 OVC090 | 18.3 | 16.1 | 87% | 76.02 | 1013.6 | |||||||
| 09 | 09:56 | SW 6 | 16.09 | Overcast | FEW028 OVC080 | 16.7 | 15.6 | 93% | 76.07 | 1014.5 | |||||||
| 09 | 08:56 | S 11 | 14.48 | Thunderstorm in Vicinity | BKN047 BKN060 OVC095 | 15.6 | 13.9 | 90% | 76.1 | 1015.0 | |||||||
| 09 | 07:56 | Calm | 16.09 | Overcast | BKN047 OVC055 | 15 | 13.3 | 15 | 10.6 | 90% | 76.1 | 1014.9 | |||||
| 09 | 06:56 | S 7 | 16.09 | Fair | CLR | 12.2 | 12.2 | 100% | 76.05 | 1014.3 | |||||||
| 09 | 05:56 | SE 6 | 16.09 | Fair | CLR | 11.7 | 11.7 | 100% | 76 | 1013.7 | |||||||
| 09 | 04:56 | Calm | 16.09 | Fair | CLR | 11.7 | 11.7 | 100% | 76 | 1013.6 | |||||||
| 09 | 03:56 | S 9 | 16.09 | Fair | CLR | 13.9 | 12.2 | 90% | 76.05 | 1014.2 | |||||||
| 09 | 02:56 | S 13 | 16.09 | Fair | CLR | 14.4 | 12.2 | 87% | 76.1 | 1014.7 | |||||||
| 09 | 01:56 | S 9 | 16.09 | Fair | CLR | 14.4 | 12.2 | 18.9 | 14.4 | 87% | 76.15 | 1015.5 | |||||
| 09 | 00:56 | S 15 | 16.09 | Fair | CLR | 15.6 | 12.2 | 80% | 76.2 | 1016.1 | |||||||
| 08 | 23:56 | S 13 | 16.09 | Fair | CLR | 16.1 | 9.4 | 65% | 76.2 | 1016.2 | |||||||
| 08 | 22:56 | S 11 | 16.09 | Fair | CLR | 16.7 | 8.3 | 58% | 76.23 | 1016.4 | |||||||
| 08 | 21:56 | S 7 | 16.09 | Fair | CLR | 17.2 | 7.2 | 52% | 76.2 | 1016.4 | |||||||
| 08 | 20:56 | S 7 | 16.09 | Fair | CLR | 17.2 | 7.2 | 52% | 76.17 | 1016.0 | |||||||
| 08 | 19:56 | S 6 | 16.09 | Fair | CLR | 18.9 | 6.7 | 22.8 | 18.9 | 45% | 76.12 | 1015.2 | |||||
| 08 | 18:56 | S 9 | 16.09 | Fair | CLR | 20.6 | 5.6 | 38% | 76.12 | 1015.2 | |||||||
| 08 | 17:56 | SW 9 | 16.09 | Fair | CLR | 21.7 | 2.2 | 28% | 76.12 | 1015.2 | |||||||
| 08 | 16:56 | SE 11 | 16.09 | Fair | CLR | 21.7 | 1.7 | 27% | 76.12 | 1015.1 | |||||||
| 08 | 15:56 | Calm | 16.09 | Fair | CLR | 21.1 | 1.1 | 27% | 76.17 | 1016.0 | |||||||
| 08 | 14:56 | Vrbl 7 | 16.09 | Fair | CLR | 21.7 | 1.1 | 26% | 76.23 | 1016.6 | |||||||
| 08 | 13:56 | S 15 | 16.09 | Fair | CLR | 20.6 | 1.7 | 21.1 | 11.1 | 29% | 76.28 | 1017.4 | |||||
| 08 | 12:56 | Vrbl 7 | 16.09 | Fair | CLR | 19.4 | 1.1 | 30% | 76.33 | 1018.1 | |||||||
| 08 | 11:56 | Vrbl 6 | 16.09 | Fair | CLR | 18.3 | 3.9 | 39% | 76.4 | 1018.9 | |||||||
| 08 | 10:56 | NE 15 | 16.09 | Fair | CLR | 17.8 | 4.4 | 41% | 76.4 | 1019.1 | |||||||
| 08 | 09:56 | NE 13 | 16.09 | A Few Clouds | FEW002 | 16.1 | 5.6 | 50% | 76.4 | 1019.0 | |||||||
| 08 | 08:56 | N 11 | 16.09 | Fair | CLR | 13.9 | 9.4 | 74% | 76.38 | 1018.5 | |||||||
| 08 | 07:56 | N 6 | 16.09 | Fair | CLR | 11.1 | 10.6 | 12.2 | 8.3 | 97% | 76.33 | 1018.1 | |||||
| 08 | 06:56 | Calm | 9.66 | Fog/Mist | CLR | 8.9 | 8.9 | 100% | 76.25 | 1017.2 | |||||||
| 08 | 05:56 | NW 6 | 12.87 | Fair | CLR | 9.4 | 9.4 | 100% | 76.2 | 1016.3 | |||||||
| 08 | 04:56 | Calm | 12.87 | A Few Clouds | FEW001 | 10.6 | 10.6 | 100% | 76.15 | 1015.7 | |||||||
| 08 | 03:56 | Calm | 0.80 | Fog | OVC003 | 11.7 | 11.7 | 100% | 76.1 | 1014.9 | |||||||
| 08 | 02:56 | Calm | 1.61 | Fog/Mist | OVC003 | 12.2 | 12.2 | 100% | 76.1 | 1014.7 | |||||||
| 08 | 01:56 | W 6 | 11.27 | Mostly Cloudy | FEW003 BKN070 | 12.2 | 12.2 | 13.3 | 12.2 | 100% | 76.07 | 1014.7 | |||||
| 08 | 00:56 | Calm | 14.48 | Mostly Cloudy | BKN075 | 12.2 | 12.2 | 100% | 76.07 | 1014.5 | |||||||
| 07 | 23:56 | Calm | 16.09 | Overcast | OVC065 | 12.8 | 12.8 | 100% | 76.07 | 1014.4 | |||||||
| 07 | 22:56 | N 6 | 16.09 | Overcast | OVC006 | 12.8 | 12.8 | 100% | 76.05 | 1014.1 | |||||||
| 07 | 21:56 | Calm | 16.09 | Light Rain | BKN008 OVC047 | 12.8 | 12.8 | 100% | 75.97 | 1013.3 | |||||||
| 07 | 20:56 | NE 13 | 16.09 | Light Rain | OVC036 | 13.3 | 12.8 | 97% | 75.9 | 1012.0 | |||||||
| 07 | 19:56 | N 15 | 8.05 | Rain Fog/Mist | OVC006 | 13.3 | 13.3 | 24.4 | 13.3 | 100% | 75.84 | 1011.3 | |||||
| 07 | 18:56 | NE 19 G 30 | 16.09 | Overcast | OVC008 | 13.9 | 12.8 | 93% | 75.77 | 1010.5 | |||||||
| 07 | 16:56 | N 15 | 16.09 | Overcast | OVC004 | 16.7 | 15.6 | 93% | 75.67 | 1008.9 | |||||||
| Date | Time (edt) | Wind (kph) | Vis. (km) | Weather | Sky Cond. | Air | Dwpt | Max. | Min. | Relative Humidity | Wind Chill (°C) | Heat Index (°C) | altimeter (cm) | sea level (mb) | 1 hr | 3 hr | 6 hr |
| 6 hour | |||||||||||||||||
| Temperature (ºC) | Pressure | Precipitation (cm) | |||||||||||||||